PAC561 KLAX-EFHK
Flight info
| Callsign | PAC561 |
|---|---|
| Flight time | N/A |
| Altitude | 30000 |
| Route | LADYJ4 CSTRO DCT CANDA/N0498F290 DCT BAM/N0496F300 DCT BOI/N0498F290 DCT DOXIE DCT YQL/N0491F310 Q896 MEETO Q959 YVC DCT 59N100W 64N090W 68N080W/N0494F330 71N070W/M083F330 DCT INGUM DCT 73N060W 7440N04000W 74N020W 71N000E/N0477F330 DCT PISEL/N0475F350 DCT ENETI Y362 LAKUT |
| Aircraft | B77L/H-SDE1E2E3FGHIJ2J3J4J5M1RWXY/LB1D1 |
Departure
| Time | 2026-04-21 02:52 |
|---|---|
| Airport | Los Angeles International Airport (KLAX) |
Arrival
| Time | N/A |
|---|---|
| Airport | Helsinki Vantaa Airport (EFHK) |
| Time | Latitude | Longitude | Altitude | Speed | Heading |
|---|---|---|---|---|---|
| 2026-04-21 02:19 | 33.93465 | -118.38212 | 97 ft | 0 kts | 224° |
| 2026-04-21 02:39 | 33.93467 | -118.38210 | 97 ft | 3 kts | 224° |
| 2026-04-21 02:40 | 33.93482 | -118.38186 | 97 ft | 4 kts | 258° |
| 2026-04-21 02:40 | 33.93484 | -118.38158 | 97 ft | 4 kts | 275° |
| 2026-04-21 02:40 | 33.93477 | -118.38132 | 98 ft | 4 kts | 330° |
| 2026-04-21 02:40 | 33.93455 | -118.38127 | 97 ft | 4 kts | 0° |
| 2026-04-21 02:41 | 33.93437 | -118.38127 | 97 ft | 0 kts | 0° |
| 2026-04-21 02:43 | 33.93447 | -118.38127 | 100 ft | 4 kts | 0° |
| 2026-04-21 02:43 | 33.93474 | -118.38127 | 100 ft | 4 kts | 360° |
| 2026-04-21 02:44 | 33.93500 | -118.38127 | 98 ft | 4 kts | 359° |
| 2026-04-21 02:44 | 33.93527 | -118.38128 | 100 ft | 4 kts | 359° |
| 2026-04-21 02:44 | 33.93551 | -118.38128 | 97 ft | 0 kts | 359° |
| 2026-04-21 02:45 | 33.93559 | -118.38128 | 97 ft | 4 kts | 359° |
| 2026-04-21 02:45 | 33.93598 | -118.38140 | 98 ft | 10 kts | 324° |
| 2026-04-21 02:45 | 33.93621 | -118.38245 | 99 ft | 14 kts | 293° |
| 2026-04-21 02:45 | 33.93704 | -118.38294 | 101 ft | 14 kts | 355° |
| 2026-04-21 02:46 | 33.93807 | -118.38302 | 102 ft | 16 kts | 356° |
| 2026-04-21 02:46 | 33.93853 | -118.38308 | 101 ft | 0 kts | 353° |
| 2026-04-21 02:47 | 33.93854 | -118.38308 | 101 ft | 2 kts | 353° |
| 2026-04-21 02:47 | 33.93937 | -118.38320 | 104 ft | 20 kts | 353° |
| 2026-04-21 02:47 | 33.94048 | -118.38318 | 101 ft | 12 kts | 43° |
| 2026-04-21 02:48 | 33.94058 | -118.38245 | 99 ft | 8 kts | 83° |
| 2026-04-21 02:48 | 33.94064 | -118.38180 | 98 ft | 8 kts | 83° |
| 2026-04-21 02:48 | 33.94072 | -118.38113 | 100 ft | 8 kts | 82° |
| 2026-04-21 02:48 | 33.94079 | -118.38045 | 97 ft | 8 kts | 84° |
| 2026-04-21 02:49 | 33.94044 | -118.38000 | 99 ft | 8 kts | 162° |
| 2026-04-21 02:49 | 33.93992 | -118.38021 | 99 ft | 8 kts | 228° |
| 2026-04-21 02:49 | 33.93975 | -118.38089 | 98 ft | 8 kts | 261° |
| 2026-04-21 02:49 | 33.93971 | -118.38118 | 98 ft | 0 kts | 263° |
| 2026-04-21 02:50 | 33.93971 | -118.38120 | 98 ft | 0 kts | 263° |
| 2026-04-21 02:51 | 33.93970 | -118.38130 | 101 ft | 7 kts | 263° |
| 2026-04-21 02:51 | 33.93939 | -118.38455 | 106 ft | 76 kts | 263° |
| 2026-04-21 02:51 | 33.93842 | -118.39405 | 99 ft | 148 kts | 263° |
| 2026-04-21 02:51 | 33.93694 | -118.40829 | 160 ft | 192 kts | 264° |
| 2026-04-21 02:52 | 33.93549 | -118.42444 | 771 ft | 190 kts | 263° |
| 2026-04-21 02:52 | 33.93405 | -118.44024 | 1363 ft | 195 kts | 263° |
| 2026-04-21 02:52 | 33.93227 | -118.45750 | 1634 ft | 221 kts | 262° |
| 2026-04-21 02:52 | 33.93044 | -118.47618 | 2219 ft | 230 kts | 264° |
| 2026-04-21 02:53 | 33.92877 | -118.49588 | 2632 ft | 244 kts | 264° |
| 2026-04-21 02:53 | 33.92702 | -118.51679 | 3018 ft | 258 kts | 264° |
| 2026-04-21 02:53 | 33.92519 | -118.53858 | 3527 ft | 267 kts | 264° |
| 2026-04-21 02:53 | 33.92333 | -118.56112 | 4113 ft | 272 kts | 264° |
| 2026-04-21 02:54 | 33.92123 | -118.58697 | 4948 ft | 273 kts | 263° |
| 2026-04-21 02:54 | 33.92020 | -118.60661 | 5432 ft | 276 kts | 273° |
| 2026-04-21 02:54 | 33.92677 | -118.62932 | 5958 ft | 288 kts | 306° |
| 2026-04-21 02:54 | 33.94273 | -118.64519 | 6595 ft | 292 kts | 330° |
| 2026-04-21 02:55 | 33.96006 | -118.65623 | 6994 ft | 299 kts | 330° |
| 2026-04-21 02:55 | 33.97847 | -118.66817 | 7563 ft | 302 kts | 330° |
| 2026-04-21 02:55 | 33.99798 | -118.67746 | 7979 ft | 307 kts | 352° |
| 2026-04-21 02:55 | 34.01945 | -118.67699 | 7997 ft | 311 kts | 6° |
| 2026-04-21 02:56 | 34.04106 | -118.67460 | 8014 ft | 312 kts | 3° |
| 2026-04-21 02:56 | 34.08482 | -118.67107 | 7992 ft | 309 kts | 7° |
| 2026-04-21 02:56 | 34.10561 | -118.66669 | 7976 ft | 307 kts | 12° |
| 2026-04-21 02:57 | 34.12655 | -118.66123 | 7989 ft | 309 kts | 12° |
| 2026-04-21 02:57 | 34.14761 | -118.65576 | 8151 ft | 310 kts | 12° |
| 2026-04-21 02:57 | 34.16914 | -118.65035 | 8738 ft | 314 kts | 11° |
| 2026-04-21 02:57 | 34.19073 | -118.64513 | 9191 ft | 322 kts | 11° |
| 2026-04-21 02:58 | 34.21267 | -118.63990 | 9777 ft | 325 kts | 11° |
| 2026-04-21 02:58 | 34.23496 | -118.63466 | 10291 ft | 328 kts | 9° |
| 2026-04-21 02:58 | 34.25804 | -118.63365 | 10408 ft | 339 kts | 348° |
| 2026-04-21 02:58 | 34.28154 | -118.63964 | 10572 ft | 354 kts | 345° |
| 2026-04-21 02:59 | 34.30629 | -118.64612 | 10724 ft | 373 kts | 346° |
| 2026-04-21 02:59 | 34.33237 | -118.65253 | 10893 ft | 391 kts | 347° |
| 2026-04-21 02:59 | 34.35946 | -118.65887 | 11321 ft | 401 kts | 347° |
| 2026-04-21 02:59 | 34.38711 | -118.66519 | 11846 ft | 407 kts | 347° |
| 2026-04-21 03:00 | 34.41497 | -118.67151 | 12563 ft | 408 kts | 347° |
| 2026-04-21 03:00 | 34.44301 | -118.67770 | 13191 ft | 412 kts | 348° |
| 2026-04-21 03:00 | 34.47153 | -118.68336 | 13783 ft | 417 kts | 348° |
| 2026-04-21 03:00 | 34.50034 | -118.68884 | 14309 ft | 422 kts | 348° |
| 2026-04-21 03:01 | 34.52951 | -118.69438 | 14853 ft | 426 kts | 348° |
| 2026-04-21 03:01 | 34.55894 | -118.70001 | 15392 ft | 429 kts | 348° |
| 2026-04-21 03:01 | 34.58856 | -118.70574 | 15906 ft | 434 kts | 348° |
| 2026-04-21 03:01 | 34.61812 | -118.71151 | 16412 ft | 439 kts | 348° |
| 2026-04-21 03:02 | 34.64854 | -118.71749 | 16804 ft | 446 kts | 347° |
| 2026-04-21 03:02 | 34.67936 | -118.72357 | 17245 ft | 451 kts | 347° |
| 2026-04-21 03:02 | 34.71036 | -118.72985 | 17764 ft | 451 kts | 345° |
| 2026-04-21 03:02 | 34.74142 | -118.74263 | 18137 ft | 444 kts | 327° |
| 2026-04-21 03:03 | 34.79808 | -118.78339 | 18867 ft | 454 kts | 324° |
| 2026-04-21 03:03 | 34.90800 | -118.86077 | 20844 ft | 460 kts | 326° |
| 2026-04-21 03:03 | 35.00738 | -118.92916 | 22429 ft | 467 kts | 326° |
| 2026-04-21 03:03 | 35.03576 | -118.94873 | 22864 ft | 470 kts | 326° |
| 2026-04-21 03:04 | 35.06428 | -118.96843 | 23291 ft | 472 kts | 326° |
| 2026-04-21 03:04 | 35.09296 | -118.98824 | 23687 ft | 474 kts | 326° |
| 2026-04-21 03:04 | 35.12171 | -119.00812 | 24086 ft | 475 kts | 326° |
| 2026-04-21 03:04 | 35.15052 | -119.02806 | 24469 ft | 477 kts | 326° |
| 2026-04-21 03:05 | 35.17940 | -119.04807 | 24811 ft | 479 kts | 326° |
| 2026-04-21 03:05 | 35.20843 | -119.06822 | 25192 ft | 481 kts | 326° |
| 2026-04-21 03:05 | 35.23756 | -119.08845 | 25543 ft | 483 kts | 326° |
| 2026-04-21 03:05 | 35.26644 | -119.10851 | 25905 ft | 484 kts | 326° |
| 2026-04-21 03:06 | 35.29580 | -119.12890 | 26259 ft | 486 kts | 326° |
| 2026-04-21 03:06 | 35.32529 | -119.14940 | 26605 ft | 488 kts | 326° |
| 2026-04-21 03:06 | 35.35484 | -119.16999 | 26953 ft | 490 kts | 326° |
| 2026-04-21 03:06 | 35.38453 | -119.19068 | 27310 ft | 492 kts | 326° |
| 2026-04-21 03:07 | 35.41437 | -119.21138 | 27589 ft | 493 kts | 328° |
| 2026-04-21 03:07 | 35.44667 | -119.22682 | 27681 ft | 509 kts | 345° |
| 2026-04-21 03:07 | 35.48229 | -119.22982 | 27895 ft | 520 kts | 4° |
| 2026-04-21 03:07 | 35.51779 | -119.22141 | 28197 ft | 521 kts | 11° |
| 2026-04-21 03:08 | 35.55286 | -119.21197 | 28424 ft | 524 kts | 9° |
| 2026-04-21 03:08 | 35.58864 | -119.20309 | 28700 ft | 526 kts | 8° |
| 2026-04-21 03:08 | 35.62474 | -119.19461 | 28894 ft | 531 kts | 8° |
| 2026-04-21 03:08 | 35.66128 | -119.18629 | 28932 ft | 537 kts | 8° |
| 2026-04-21 03:09 | 35.73518 | -119.16966 | 28921 ft | 540 kts | 8° |
| 2026-04-21 03:09 | 35.80904 | -119.15292 | 28928 ft | 539 kts | 8° |
| 2026-04-21 03:10 | 35.88285 | -119.13606 | 28937 ft | 540 kts | 8° |
| 2026-04-21 03:10 | 35.95675 | -119.11911 | 28938 ft | 540 kts | 8° |
| 2026-04-21 03:11 | 36.03067 | -119.10213 | 28937 ft | 541 kts | 8° |
| 2026-04-21 03:11 | 36.10469 | -119.08507 | 28939 ft | 542 kts | 8° |
| 2026-04-21 03:12 | 36.17844 | -119.06809 | 28942 ft | 543 kts | 8° |
| 2026-04-21 03:12 | 36.25272 | -119.05095 | 28955 ft | 544 kts | 8° |
| 2026-04-21 03:13 | 36.32714 | -119.03372 | 28960 ft | 544 kts | 8° |
| 2026-04-21 03:13 | 36.40169 | -119.01645 | 28947 ft | 545 kts | 8° |
| 2026-04-21 03:14 | 36.47574 | -118.99923 | 28977 ft | 545 kts | 8° |
| 2026-04-21 03:14 | 36.55035 | -118.98186 | 28970 ft | 546 kts | 8° |
| 2026-04-21 03:15 | 36.62495 | -118.96444 | 28975 ft | 545 kts | 8° |
| 2026-04-21 03:15 | 36.69953 | -118.94701 | 28971 ft | 546 kts | 9° |
| 2026-04-21 03:16 | 36.76156 | -118.93249 | 28984 ft | 545 kts | 9° |
| 2026-04-21 03:16 | 36.84815 | -118.91222 | 28980 ft | 545 kts | 9° |
| 2026-04-21 03:17 | 36.91062 | -118.89752 | 29005 ft | 545 kts | 9° |
| 2026-04-21 03:17 | 36.98469 | -118.88006 | 28996 ft | 545 kts | 9° |
| 2026-04-21 03:18 | 37.05920 | -118.86247 | 28990 ft | 545 kts | 9° |
| 2026-04-21 03:18 | 37.13363 | -118.84490 | 28983 ft | 545 kts | 9° |
| 2026-04-21 03:19 | 37.20817 | -118.82724 | 28991 ft | 545 kts | 9° |
| 2026-04-21 03:19 | 37.28266 | -118.80956 | 28988 ft | 545 kts | 9° |
| 2026-04-21 03:20 | 37.35658 | -118.79182 | 28993 ft | 544 kts | 11° |
| 2026-04-21 03:20 | 37.42901 | -118.76410 | 28997 ft | 545 kts | 22° |
| 2026-04-21 03:21 | 37.49800 | -118.72479 | 29036 ft | 544 kts | 24° |
| 2026-04-21 03:21 | 37.56691 | -118.68527 | 29051 ft | 543 kts | 24° |
| 2026-04-21 03:22 | 37.63587 | -118.64628 | 29028 ft | 543 kts | 24° |
| 2026-04-21 03:22 | 37.70502 | -118.60744 | 28999 ft | 545 kts | 24° |
| 2026-04-21 03:23 | 37.77393 | -118.56870 | 28955 ft | 546 kts | 24° |
| 2026-04-21 03:23 | 37.84340 | -118.52950 | 28880 ft | 548 kts | 24° |
| 2026-04-21 03:24 | 37.91311 | -118.49004 | 28844 ft | 549 kts | 24° |
| 2026-04-21 03:24 | 37.98297 | -118.45040 | 28848 ft | 551 kts | 24° |
| 2026-04-21 03:25 | 38.05287 | -118.41068 | 28816 ft | 550 kts | 24° |
| 2026-04-21 03:25 | 38.12203 | -118.37131 | 28818 ft | 548 kts | 24° |
| 2026-04-21 03:26 | 38.19149 | -118.33168 | 28842 ft | 547 kts | 24° |
| 2026-04-21 03:26 | 38.26084 | -118.29202 | 28830 ft | 546 kts | 24° |
| 2026-04-21 03:27 | 38.33018 | -118.25227 | 28809 ft | 547 kts | 24° |
| 2026-04-21 03:27 | 38.39948 | -118.21252 | 28839 ft | 546 kts | 24° |
| 2026-04-21 03:28 | 38.46879 | -118.17267 | 28834 ft | 547 kts | 25° |
| 2026-04-21 03:28 | 38.53772 | -118.13286 | 28846 ft | 548 kts | 25° |
| 2026-04-21 03:29 | 38.60721 | -118.09270 | 28817 ft | 548 kts | 25° |
| 2026-04-21 03:29 | 38.67668 | -118.05247 | 28852 ft | 548 kts | 25° |
| 2026-04-21 03:30 | 38.74627 | -118.01211 | 28853 ft | 549 kts | 25° |
| 2026-04-21 03:30 | 38.81589 | -117.97161 | 28850 ft | 550 kts | 25° |
| 2026-04-21 03:31 | 38.88554 | -117.93101 | 28845 ft | 550 kts | 25° |
| 2026-04-21 03:31 | 38.95479 | -117.89056 | 28835 ft | 551 kts | 25° |
| 2026-04-21 03:32 | 39.02456 | -117.84972 | 28825 ft | 552 kts | 25° |
| 2026-04-21 03:32 | 39.09444 | -117.80873 | 28853 ft | 552 kts | 25° |
| 2026-04-21 03:33 | 39.16431 | -117.76765 | 28845 ft | 552 kts | 25° |
| 2026-04-21 03:33 | 39.23413 | -117.72653 | 28837 ft | 551 kts | 25° |
| 2026-04-21 03:34 | 39.30333 | -117.68570 | 28856 ft | 550 kts | 25° |
| 2026-04-21 03:34 | 39.37289 | -117.64446 | 28835 ft | 550 kts | 25° |
| 2026-04-21 03:35 | 39.44245 | -117.60318 | 28858 ft | 550 kts | 25° |
| 2026-04-21 03:35 | 39.51212 | -117.56180 | 28880 ft | 551 kts | 25° |
| 2026-04-21 03:36 | 39.58193 | -117.52023 | 28871 ft | 553 kts | 25° |
| 2026-04-21 03:36 | 39.65176 | -117.47859 | 28866 ft | 552 kts | 26° |
| 2026-04-21 03:37 | 39.72150 | -117.43683 | 28810 ft | 552 kts | 26° |
| 2026-04-21 03:37 | 39.79063 | -117.39537 | 28803 ft | 551 kts | 26° |
| 2026-04-21 03:38 | 39.86019 | -117.35353 | 28800 ft | 551 kts | 26° |
| 2026-04-21 03:38 | 39.92973 | -117.31162 | 28781 ft | 551 kts | 26° |
| 2026-04-21 03:39 | 39.99936 | -117.26960 | 28788 ft | 551 kts | 26° |
| 2026-04-21 03:39 | 40.06897 | -117.22748 | 28790 ft | 551 kts | 26° |
| 2026-04-21 03:40 | 40.13795 | -117.18563 | 28797 ft | 551 kts | 26° |
| 2026-04-21 03:40 | 40.20745 | -117.14337 | 28794 ft | 551 kts | 26° |
| 2026-04-21 03:41 | 40.27702 | -117.10100 | 28782 ft | 551 kts | 26° |
| 2026-04-21 03:41 | 40.34650 | -117.05859 | 28819 ft | 551 kts | 26° |
| 2026-04-21 03:42 | 40.41595 | -117.01602 | 28852 ft | 551 kts | 26° |
| 2026-04-21 03:42 | 40.48538 | -116.97346 | 28881 ft | 551 kts | 26° |
| 2026-04-21 03:43 | 40.55492 | -116.93288 | 28903 ft | 551 kts | 20° |
| 2026-04-21 03:43 | 40.62873 | -116.90608 | 28891 ft | 551 kts | 9° |
| 2026-04-21 03:44 | 40.70428 | -116.88934 | 28891 ft | 551 kts | 9° |
| 2026-04-21 03:44 | 40.77991 | -116.87251 | 28870 ft | 552 kts | 9° |
| 2026-04-21 03:45 | 40.85547 | -116.85501 | 28797 ft | 551 kts | 9° |
| 2026-04-21 03:45 | 40.93049 | -116.83727 | 28793 ft | 551 kts | 9° |
| 2026-04-21 03:46 | 41.00576 | -116.81939 | 28810 ft | 550 kts | 9° |
| 2026-04-21 03:46 | 41.08113 | -116.80152 | 28792 ft | 550 kts | 9° |
| 2026-04-21 03:47 | 41.15639 | -116.78368 | 28791 ft | 549 kts | 9° |
| 2026-04-21 03:47 | 41.23106 | -116.76594 | 28805 ft | 549 kts | 9° |
| 2026-04-21 03:48 | 41.30626 | -116.74799 | 28797 ft | 549 kts | 9° |
| 2026-04-21 03:48 | 41.38141 | -116.73004 | 28804 ft | 548 kts | 9° |
| 2026-04-21 03:49 | 41.45642 | -116.71208 | 28801 ft | 548 kts | 9° |
| 2026-04-21 03:49 | 41.53140 | -116.69409 | 28798 ft | 547 kts | 9° |
| 2026-04-21 03:50 | 41.60582 | -116.67620 | 28802 ft | 547 kts | 9° |
| 2026-04-21 03:50 | 41.68075 | -116.65812 | 28790 ft | 547 kts | 9° |
| 2026-04-21 03:51 | 41.75567 | -116.63998 | 28796 ft | 547 kts | 9° |
| 2026-04-21 03:51 | 41.83058 | -116.62183 | 28804 ft | 547 kts | 9° |
| 2026-04-21 03:52 | 41.90552 | -116.60362 | 28799 ft | 547 kts | 9° |
| 2026-04-21 03:52 | 41.97987 | -116.58552 | 28788 ft | 547 kts | 9° |
| 2026-04-21 03:53 | 42.05470 | -116.56725 | 28805 ft | 546 kts | 9° |
| 2026-04-21 03:53 | 42.12947 | -116.54897 | 28803 ft | 546 kts | 9° |
| 2026-04-21 03:54 | 42.20422 | -116.53063 | 28803 ft | 545 kts | 9° |
| 2026-04-21 03:54 | 42.27878 | -116.51225 | 28806 ft | 544 kts | 9° |
| 2026-04-21 03:55 | 42.35324 | -116.49390 | 28814 ft | 543 kts | 9° |
| 2026-04-21 03:55 | 42.42703 | -116.47570 | 28836 ft | 543 kts | 9° |
| 2026-04-21 03:56 | 42.50142 | -116.45730 | 28809 ft | 543 kts | 8° |
| 2026-04-21 03:56 | 42.57574 | -116.43886 | 28818 ft | 543 kts | 8° |
| 2026-04-21 03:57 | 42.65000 | -116.42036 | 28823 ft | 542 kts | 9° |
| 2026-04-21 03:57 | 42.72421 | -116.40185 | 28814 ft | 543 kts | 9° |
| 2026-04-21 03:58 | 42.79795 | -116.38342 | 28790 ft | 542 kts | 9° |
| 2026-04-21 03:58 | 42.87210 | -116.36483 | 28816 ft | 541 kts | 9° |
| 2026-04-21 03:59 | 42.94598 | -116.34625 | 28808 ft | 539 kts | 9° |
| 2026-04-21 04:00 | 43.05659 | -116.31840 | 28808 ft | 538 kts | 9° |
| 2026-04-21 04:00 | 43.12976 | -116.29991 | 28796 ft | 539 kts | 9° |
| 2026-04-21 04:01 | 43.20346 | -116.28124 | 28807 ft | 538 kts | 9° |
| 2026-04-21 04:01 | 43.27709 | -116.26252 | 28807 ft | 538 kts | 9° |
| 2026-04-21 04:02 | 43.35069 | -116.24376 | 28801 ft | 538 kts | 9° |
| 2026-04-21 04:02 | 43.42382 | -116.22510 | 28811 ft | 538 kts | 9° |
| 2026-04-21 04:03 | 43.49740 | -116.20627 | 28826 ft | 538 kts | 8° |
| 2026-04-21 04:03 | 43.57080 | -116.18559 | 28809 ft | 539 kts | 14° |
| 2026-04-21 04:04 | 43.64252 | -116.15502 | 28793 ft | 540 kts | 16° |
| 2026-04-21 04:04 | 43.71410 | -116.12320 | 28797 ft | 541 kts | 16° |
| 2026-04-21 04:05 | 43.78585 | -116.09173 | 28801 ft | 541 kts | 16° |
| 2026-04-21 04:05 | 43.85731 | -116.06078 | 28805 ft | 542 kts | 16° |
| 2026-04-21 04:06 | 43.92923 | -116.02970 | 28839 ft | 542 kts | 16° |
| 2026-04-21 04:06 | 44.00116 | -115.99845 | 28829 ft | 541 kts | 16° |
| 2026-04-21 04:07 | 44.07289 | -115.96715 | 28839 ft | 539 kts | 15° |
| 2026-04-21 04:07 | 44.14382 | -115.93616 | 28868 ft | 537 kts | 16° |
| 2026-04-21 04:08 | 44.21496 | -115.90499 | 28856 ft | 535 kts | 16° |
| 2026-04-21 04:08 | 44.28596 | -115.87377 | 28871 ft | 534 kts | 16° |
| 2026-04-21 04:09 | 44.35683 | -115.84257 | 28861 ft | 534 kts | 16° |
| 2026-04-21 04:09 | 44.42720 | -115.81154 | 28879 ft | 534 kts | 15° |
| 2026-04-21 04:10 | 44.49811 | -115.78016 | 28889 ft | 535 kts | 15° |
| 2026-04-21 04:10 | 44.56901 | -115.74870 | 28902 ft | 535 kts | 16° |
| 2026-04-21 04:11 | 44.64003 | -115.71708 | 28904 ft | 535 kts | 15° |
| 2026-04-21 04:11 | 44.71047 | -115.68564 | 28913 ft | 534 kts | 15° |
| 2026-04-21 04:12 | 44.78122 | -115.65400 | 28907 ft | 533 kts | 15° |
| 2026-04-21 04:12 | 44.85212 | -115.62224 | 29123 ft | 537 kts | 15° |
| 2026-04-21 04:12 | 44.88767 | -115.60627 | 29546 ft | 535 kts | 15° |
| 2026-04-21 04:13 | 44.92299 | -115.59036 | 30022 ft | 531 kts | 15° |
| 2026-04-21 04:13 | 44.95806 | -115.57456 | 30500 ft | 527 kts | 15° |
| 2026-04-21 04:13 | 44.99239 | -115.55908 | 30877 ft | 525 kts | 15° |
| 2026-04-21 04:14 | 45.06258 | -115.52741 | 30887 ft | 531 kts | 15° |
| 2026-04-21 04:14 | 45.13266 | -115.49565 | 30875 ft | 527 kts | 15° |
| 2026-04-21 04:15 | 45.20244 | -115.46394 | 30882 ft | 526 kts | 15° |
| 2026-04-21 04:15 | 45.27214 | -115.43221 | 30870 ft | 526 kts | 14° |
| 2026-04-21 04:16 | 45.34131 | -115.40064 | 30851 ft | 526 kts | 14° |
| 2026-04-21 04:16 | 45.41095 | -115.36878 | 30849 ft | 525 kts | 14° |
| 2026-04-21 04:17 | 45.48051 | -115.33688 | 30830 ft | 525 kts | 14° |
| 2026-04-21 04:17 | 45.54997 | -115.30491 | 30842 ft | 524 kts | 14° |
| 2026-04-21 04:18 | 45.61928 | -115.27290 | 30837 ft | 523 kts | 14° |
| 2026-04-21 04:18 | 45.68813 | -115.24110 | 30814 ft | 523 kts | 14° |
| 2026-04-21 04:19 | 45.75728 | -115.20901 | 30819 ft | 522 kts | 14° |
| 2026-04-21 04:19 | 45.82632 | -115.17693 | 30837 ft | 522 kts | 14° |
| 2026-04-21 04:20 | 45.89421 | -115.13870 | 30844 ft | 525 kts | 19° |
| 2026-04-21 04:20 | 45.96094 | -115.09729 | 30847 ft | 526 kts | 19° |
| 2026-04-21 04:21 | 46.02823 | -115.05541 | 30835 ft | 528 kts | 19° |
| 2026-04-21 04:21 | 46.09572 | -115.01376 | 30849 ft | 528 kts | 19° |
| 2026-04-21 04:22 | 46.16321 | -114.97217 | 30852 ft | 527 kts | 19° |
| 2026-04-21 04:22 | 46.23066 | -114.93052 | 30841 ft | 527 kts | 19° |
| 2026-04-21 04:23 | 46.29755 | -114.88911 | 30850 ft | 526 kts | 19° |
| 2026-04-21 04:23 | 46.36474 | -114.84737 | 30851 ft | 525 kts | 18° |
| 2026-04-21 04:24 | 46.43183 | -114.80555 | 30847 ft | 524 kts | 18° |
| 2026-04-21 04:24 | 46.49872 | -114.76376 | 30851 ft | 523 kts | 18° |
| 2026-04-21 04:25 | 46.56548 | -114.72196 | 30847 ft | 522 kts | 19° |
| 2026-04-21 04:25 | 46.63226 | -114.68000 | 30854 ft | 523 kts | 18° |
| 2026-04-21 04:26 | 46.69867 | -114.63818 | 30861 ft | 524 kts | 18° |
| 2026-04-21 04:26 | 46.76563 | -114.59592 | 30857 ft | 524 kts | 18° |
| 2026-04-21 04:27 | 46.83263 | -114.55351 | 30872 ft | 525 kts | 18° |
| 2026-04-21 04:27 | 46.89975 | -114.51093 | 30847 ft | 526 kts | 18° |
| 2026-04-21 04:28 | 46.96694 | -114.46815 | 30852 ft | 526 kts | 19° |
| 2026-04-21 04:28 | 47.03349 | -114.42565 | 30857 ft | 526 kts | 18° |
| 2026-04-21 04:29 | 47.10060 | -114.38269 | 30870 ft | 526 kts | 18° |